sensor_id;sensor_type;location;lat;lon;timestamp;temperature;humidity
21627;DHT22;10975;47.872;12.972;2022-09-09T00:09:25;15.00;99.90
21627;DHT22;10975;47.872;12.972;2022-09-09T00:11:55;15.00;99.90
21627;DHT22;10975;47.872;12.972;2022-09-09T00:16:58;14.90;99.90
21627;DHT22;10975;47.872;12.972;2022-09-09T00:19:29;14.90;99.90
21627;DHT22;10975;47.872;12.972;2022-09-09T00:22:04;14.90;99.90
21627;DHT22;10975;47.872;12.972;2022-09-09T00:24:38;15.00;99.90
21627;DHT22;10975;47.872;12.972;2022-09-09T00:27:08;15.00;99.90
21627;DHT22;10975;47.872;12.972;2022-09-09T00:29:52;15.00;99.90
21627;DHT22;10975;47.872;12.972;2022-09-09T00:32:20;15.00;99.90
21627;DHT22;10975;47.872;12.972;2022-09-09T00:34:49;15.00;99.90
21627;DHT22;10975;47.872;12.972;2022-09-09T00:37:16;15.00;99.90
21627;DHT22;10975;47.872;12.972;2022-09-09T00:39:44;15.10;99.90
21627;DHT22;10975;47.872;12.972;2022-09-09T00:42:15;15.10;99.90
21627;DHT22;10975;47.872;12.972;2022-09-09T00:44:52;15.10;99.90
21627;DHT22;10975;47.872;12.972;2022-09-09T00:52:32;15.30;99.90
21627;DHT22;10975;47.872;12.972;2022-09-09T00:55:25;15.30;99.90
21627;DHT22;10975;47.872;12.972;2022-09-09T00:57:48;15.30;99.90
21627;DHT22;10975;47.872;12.972;2022-09-09T01:08:25;15.40;99.90
21627;DHT22;10975;47.872;12.972;2022-09-09T01:10:59;15.40;99.90
21627;DHT22;10975;47.872;12.972;2022-09-09T01:13:30;15.40;99.90
21627;DHT22;10975;47.872;12.972;2022-09-09T01:15:58;15.40;99.90
21627;DHT22;10975;47.872;12.972;2022-09-09T01:18:28;15.40;99.90
21627;DHT22;10975;47.872;12.972;2022-09-09T01:26:32;15.30;99.90
21627;DHT22;10975;47.872;12.972;2022-09-09T01:29:01;15.40;99.90
21627;DHT22;10975;47.872;12.972;2022-09-09T01:31:29;15.40;99.90
21627;DHT22;10975;47.872;12.972;2022-09-09T01:33:57;15.40;99.90
21627;DHT22;10975;47.872;12.972;2022-09-09T01:36:38;15.40;99.90
21627;DHT22;10975;47.872;12.972;2022-09-09T01:39:06;15.40;99.90
21627;DHT22;10975;47.872;12.972;2022-09-09T01:41:32;15.40;99.90
21627;DHT22;10975;47.872;12.972;2022-09-09T01:43:59;15.50;99.90
21627;DHT22;10975;47.872;12.972;2022-09-09T01:46:26;15.40;99.90
21627;DHT22;10975;47.872;12.972;2022-09-09T01:48:54;15.40;99.90
21627;DHT22;10975;47.872;12.972;2022-09-09T01:51:21;15.40;99.90
21627;DHT22;10975;47.872;12.972;2022-09-09T01:53:48;15.40;99.90
21627;DHT22;10975;47.872;12.972;2022-09-09T01:56:19;15.50;99.90
21627;DHT22;10975;47.872;12.972;2022-09-09T02:04:08;15.50;99.90
21627;DHT22;10975;47.872;12.972;2022-09-09T02:06:40;15.50;99.90
21627;DHT22;10975;47.872;12.972;2022-09-09T02:09:07;15.40;99.90
21627;DHT22;10975;47.872;12.972;2022-09-09T02:11:37;15.40;99.90
21627;DHT22;10975;47.872;12.972;2022-09-09T02:14:08;15.40;99.90
21627;DHT22;10975;47.872;12.972;2022-09-09T02:16:59;15.40;99.90
21627;DHT22;10975;47.872;12.972;2022-09-09T02:19:25;15.40;99.90
21627;DHT22;10975;47.872;12.972;2022-09-09T02:21:54;15.40;99.90
21627;DHT22;10975;47.872;12.972;2022-09-09T02:24:22;15.40;99.90
21627;DHT22;10975;47.872;12.972;2022-09-09T02:26:49;15.40;99.90
21627;DHT22;10975;47.872;12.972;2022-09-09T02:29:19;15.40;99.90
21627;DHT22;10975;47.872;12.972;2022-09-09T02:31:47;15.40;99.90
21627;DHT22;10975;47.872;12.972;2022-09-09T02:34:16;15.40;99.90
21627;DHT22;10975;47.872;12.972;2022-09-09T02:36:44;15.40;99.90
21627;DHT22;10975;47.872;12.972;2022-09-09T02:39:12;15.40;99.90
21627;DHT22;10975;47.872;12.972;2022-09-09T02:41:40;15.40;99.90
21627;DHT22;10975;47.872;12.972;2022-09-09T02:44:14;15.40;99.90
21627;DHT22;10975;47.872;12.972;2022-09-09T02:49:34;15.40;99.90
21627;DHT22;10975;47.872;12.972;2022-09-09T02:52:06;15.30;99.90
21627;DHT22;10975;47.872;12.972;2022-09-09T02:54:34;15.40;99.90
21627;DHT22;10975;47.872;12.972;2022-09-09T02:57:04;15.30;99.90
21627;DHT22;10975;47.872;12.972;2022-09-09T02:59:32;15.30;99.90
21627;DHT22;10975;47.872;12.972;2022-09-09T03:01:59;15.30;99.90
21627;DHT22;10975;47.872;12.972;2022-09-09T03:04:26;15.30;99.90
21627;DHT22;10975;47.872;12.972;2022-09-09T03:06:53;15.30;99.90
21627;DHT22;10975;47.872;12.972;2022-09-09T03:09:20;15.20;99.90
21627;DHT22;10975;47.872;12.972;2022-09-09T03:11:46;15.20;99.90
21627;DHT22;10975;47.872;12.972;2022-09-09T03:14:13;15.30;99.90
21627;DHT22;10975;47.872;12.972;2022-09-09T03:16:39;15.20;99.90
21627;DHT22;10975;47.872;12.972;2022-09-09T03:19:06;15.10;99.90
21627;DHT22;10975;47.872;12.972;2022-09-09T03:21:33;15.00;99.90
21627;DHT22;10975;47.872;12.972;2022-09-09T03:24:00;15.00;99.90
21627;DHT22;10975;47.872;12.972;2022-09-09T03:26:26;15.00;99.90
21627;DHT22;10975;47.872;12.972;2022-09-09T03:28:53;15.00;99.90
21627;DHT22;10975;47.872;12.972;2022-09-09T03:31:20;14.90;99.90
21627;DHT22;10975;47.872;12.972;2022-09-09T03:33:47;14.90;99.90
21627;DHT22;10975;47.872;12.972;2022-09-09T03:36:14;14.90;99.90
21627;DHT22;10975;47.872;12.972;2022-09-09T03:38:41;14.90;99.90
21627;DHT22;10975;47.872;12.972;2022-09-09T03:41:07;15.00;99.90
21627;DHT22;10975;47.872;12.972;2022-09-09T03:43:35;15.00;99.90
21627;DHT22;10975;47.872;12.972;2022-09-09T03:46:01;15.00;99.90
21627;DHT22;10975;47.872;12.972;2022-09-09T03:48:28;15.00;99.90
21627;DHT22;10975;47.872;12.972;2022-09-09T03:50:55;15.10;99.90
21627;DHT22;10975;47.872;12.972;2022-09-09T03:53:24;15.10;99.90
21627;DHT22;10975;47.872;12.972;2022-09-09T03:55:52;15.10;99.90
21627;DHT22;10975;47.872;12.972;2022-09-09T03:58:24;15.10;99.90
21627;DHT22;10975;47.872;12.972;2022-09-09T04:00:54;15.10;99.90
21627;DHT22;10975;47.872;12.972;2022-09-09T04:03:21;15.10;99.90
21627;DHT22;10975;47.872;12.972;2022-09-09T04:05:53;15.10;99.90
21627;DHT22;10975;47.872;12.972;2022-09-09T04:08:21;15.10;99.90
21627;DHT22;10975;47.872;12.972;2022-09-09T04:10:48;15.10;99.90
21627;DHT22;10975;47.872;12.972;2022-09-09T04:13:16;15.20;99.90
21627;DHT22;10975;47.872;12.972;2022-09-09T04:15:44;15.20;99.90
21627;DHT22;10975;47.872;12.972;2022-09-09T04:18:16;15.20;99.90
21627;DHT22;10975;47.872;12.972;2022-09-09T04:20:46;15.20;99.90
21627;DHT22;10975;47.872;12.972;2022-09-09T04:23:13;15.20;99.90
21627;DHT22;10975;47.872;12.972;2022-09-09T04:25:46;15.30;99.90
21627;DHT22;10975;47.872;12.972;2022-09-09T04:28:13;15.30;99.90
21627;DHT22;10975;47.872;12.972;2022-09-09T04:30:40;15.30;99.90
21627;DHT22;10975;47.872;12.972;2022-09-09T04:33:07;15.20;99.90
21627;DHT22;10975;47.872;12.972;2022-09-09T04:35:34;15.30;99.90
21627;DHT22;10975;47.872;12.972;2022-09-09T04:38:01;15.20;99.90
21627;DHT22;10975;47.872;12.972;2022-09-09T04:40:29;15.30;99.90
21627;DHT22;10975;47.872;12.972;2022-09-09T04:42:59;15.30;99.90
21627;DHT22;10975;47.872;12.972;2022-09-09T04:45:26;15.30;99.90
21627;DHT22;10975;47.872;12.972;2022-09-09T04:47:53;15.30;99.90
21627;DHT22;10975;47.872;12.972;2022-09-09T04:50:20;15.30;99.90
21627;DHT22;10975;47.872;12.972;2022-09-09T04:52:47;15.30;99.90
21627;DHT22;10975;47.872;12.972;2022-09-09T04:55:14;15.30;99.90
21627;DHT22;10975;47.872;12.972;2022-09-09T04:57:40;15.30;99.90
21627;DHT22;10975;47.872;12.972;2022-09-09T05:00:08;15.30;99.90
21627;DHT22;10975;47.872;12.972;2022-09-09T05:02:37;15.30;99.90
21627;DHT22;10975;47.872;12.972;2022-09-09T05:05:04;15.30;99.90
21627;DHT22;10975;47.872;12.972;2022-09-09T05:07:31;15.40;99.90
21627;DHT22;10975;47.872;12.972;2022-09-09T05:09:58;15.40;99.90
21627;DHT22;10975;47.872;12.972;2022-09-09T05:12:24;15.40;99.90
21627;DHT22;10975;47.872;12.972;2022-09-09T05:14:52;15.40;99.90
21627;DHT22;10975;47.872;12.972;2022-09-09T05:17:19;15.40;99.90
21627;DHT22;10975;47.872;12.972;2022-09-09T05:19:45;15.40;99.90
21627;DHT22;10975;47.872;12.972;2022-09-09T05:22:12;15.40;99.90
21627;DHT22;10975;47.872;12.972;2022-09-09T05:24:38;15.40;99.90
21627;DHT22;10975;47.872;12.972;2022-09-09T05:27:05;15.40;99.90
21627;DHT22;10975;47.872;12.972;2022-09-09T05:29:32;15.40;99.90
21627;DHT22;10975;47.872;12.972;2022-09-09T05:32:02;15.50;99.90
21627;DHT22;10975;47.872;12.972;2022-09-09T05:34:29;15.50;99.90
21627;DHT22;10975;47.872;12.972;2022-09-09T05:36:56;15.60;99.90
21627;DHT22;10975;47.872;12.972;2022-09-09T05:39:22;15.60;99.90
21627;DHT22;10975;47.872;12.972;2022-09-09T05:41:49;15.60;99.90
21627;DHT22;10975;47.872;12.972;2022-09-09T05:44:16;15.60;99.90
21627;DHT22;10975;47.872;12.972;2022-09-09T05:46:43;15.60;99.90
21627;DHT22;10975;47.872;12.972;2022-09-09T05:49:11;15.70;99.90
21627;DHT22;10975;47.872;12.972;2022-09-09T05:51:37;15.70;99.90
21627;DHT22;10975;47.872;12.972;2022-09-09T05:54:04;15.70;99.90
21627;DHT22;10975;47.872;12.972;2022-09-09T05:56:31;15.80;99.90
21627;DHT22;10975;47.872;12.972;2022-09-09T05:58:58;15.80;99.90
21627;DHT22;10975;47.872;12.972;2022-09-09T06:01:30;15.80;99.90
21627;DHT22;10975;47.872;12.972;2022-09-09T06:03:57;15.90;99.90
21627;DHT22;10975;47.872;12.972;2022-09-09T06:06:31;15.80;99.90
21627;DHT22;10975;47.872;12.972;2022-09-09T06:08:58;15.80;99.90
21627;DHT22;10975;47.872;12.972;2022-09-09T06:11:25;15.80;99.90
21627;DHT22;10975;47.872;12.972;2022-09-09T06:13:52;15.80;99.90
21627;DHT22;10975;47.872;12.972;2022-09-09T06:16:21;15.80;99.90
21627;DHT22;10975;47.872;12.972;2022-09-09T06:18:52;15.80;99.90
21627;DHT22;10975;47.872;12.972;2022-09-09T06:21:20;15.80;99.90
21627;DHT22;10975;47.872;12.972;2022-09-09T06:23:47;15.80;99.90
21627;DHT22;10975;47.872;12.972;2022-09-09T06:26:15;15.80;99.90
21627;DHT22;10975;47.872;12.972;2022-09-09T06:28:45;15.80;99.90
21627;DHT22;10975;47.872;12.972;2022-09-09T06:31:12;15.80;99.90
21627;DHT22;10975;47.872;12.972;2022-09-09T06:33:40;15.80;99.90
21627;DHT22;10975;47.872;12.972;2022-09-09T06:36:11;15.90;99.90
21627;DHT22;10975;47.872;12.972;2022-09-09T06:38:39;15.90;99.90
21627;DHT22;10975;47.872;12.972;2022-09-09T06:41:05;16.00;99.90
21627;DHT22;10975;47.872;12.972;2022-09-09T06:43:32;16.00;99.90
21627;DHT22;10975;47.872;12.972;2022-09-09T06:46:00;16.10;99.90
21627;DHT22;10975;47.872;12.972;2022-09-09T06:48:27;16.10;99.90
21627;DHT22;10975;47.872;12.972;2022-09-09T06:51:05;16.10;99.90
21627;DHT22;10975;47.872;12.972;2022-09-09T06:53:33;16.10;99.90
21627;DHT22;10975;47.872;12.972;2022-09-09T06:56:42;16.10;99.90
21627;DHT22;10975;47.872;12.972;2022-09-09T06:58:51;16.20;99.90
21627;DHT22;10975;47.872;12.972;2022-09-09T07:01:19;16.10;99.90
21627;DHT22;10975;47.872;12.972;2022-09-09T07:03:47;16.20;99.90
21627;DHT22;10975;47.872;12.972;2022-09-09T07:06:15;16.20;99.90
21627;DHT22;10975;47.872;12.972;2022-09-09T07:08:43;16.20;99.90
21627;DHT22;10975;47.872;12.972;2022-09-09T07:11:22;16.20;99.90
21627;DHT22;10975;47.872;12.972;2022-09-09T07:13:49;16.30;99.90
21627;DHT22;10975;47.872;12.972;2022-09-09T07:16:17;16.30;99.90
21627;DHT22;10975;47.872;12.972;2022-09-09T07:18:44;16.30;99.90
21627;DHT22;10975;47.872;12.972;2022-09-09T07:21:11;16.30;99.90
21627;DHT22;10975;47.872;12.972;2022-09-09T07:23:39;16.40;99.90
21627;DHT22;10975;47.872;12.972;2022-09-09T07:26:10;16.30;99.90
21627;DHT22;10975;47.872;12.972;2022-09-09T07:28:37;16.40;99.90
21627;DHT22;10975;47.872;12.972;2022-09-09T07:31:04;16.30;99.90
21627;DHT22;10975;47.872;12.972;2022-09-09T07:33:32;16.40;99.90
21627;DHT22;10975;47.872;12.972;2022-09-09T07:36:07;16.40;99.90
21627;DHT22;10975;47.872;12.972;2022-09-09T07:38:41;16.40;99.90
21627;DHT22;10975;47.872;12.972;2022-09-09T07:41:10;16.40;99.90
21627;DHT22;10975;47.872;12.972;2022-09-09T07:43:43;16.40;99.90
21627;DHT22;10975;47.872;12.972;2022-09-09T07:46:11;16.40;99.90
21627;DHT22;10975;47.872;12.972;2022-09-09T07:48:39;16.40;99.90
21627;DHT22;10975;47.872;12.972;2022-09-09T07:51:10;16.40;99.90
21627;DHT22;10975;47.872;12.972;2022-09-09T07:53:38;16.30;99.90
21627;DHT22;10975;47.872;12.972;2022-09-09T07:56:05;16.40;99.90
21627;DHT22;10975;47.872;12.972;2022-09-09T07:58:32;16.40;99.90
21627;DHT22;10975;47.872;12.972;2022-09-09T08:01:10;16.30;99.90
21627;DHT22;10975;47.872;12.972;2022-09-09T08:03:37;16.40;99.90
21627;DHT22;10975;47.872;12.972;2022-09-09T08:06:05;16.40;99.90
21627;DHT22;10975;47.872;12.972;2022-09-09T08:08:33;16.40;99.90
21627;DHT22;10975;47.872;12.972;2022-09-09T08:11:11;16.50;99.90
21627;DHT22;10975;47.872;12.972;2022-09-09T08:13:38;16.60;99.90
21627;DHT22;10975;47.872;12.972;2022-09-09T08:16:09;16.70;99.90
21627;DHT22;10975;47.872;12.972;2022-09-09T08:18:37;16.80;99.90
21627;DHT22;10975;47.872;12.972;2022-09-09T08:21:05;16.80;99.90
21627;DHT22;10975;47.872;12.972;2022-09-09T08:23:32;16.80;99.90
21627;DHT22;10975;47.872;12.972;2022-09-09T08:26:03;16.90;99.90
21627;DHT22;10975;47.872;12.972;2022-09-09T08:28:29;16.90;99.90
21627;DHT22;10975;47.872;12.972;2022-09-09T08:31:04;17.00;99.90
21627;DHT22;10975;47.872;12.972;2022-09-09T08:33:33;17.00;99.90
21627;DHT22;10975;47.872;12.972;2022-09-09T08:36:00;17.00;99.90
21627;DHT22;10975;47.872;12.972;2022-09-09T08:38:26;17.00;99.90
21627;DHT22;10975;47.872;12.972;2022-09-09T08:40:54;17.00;99.90
21627;DHT22;10975;47.872;12.972;2022-09-09T08:43:25;16.90;99.90
21627;DHT22;10975;47.872;12.972;2022-09-09T08:51:11;16.90;99.90
21627;DHT22;10975;47.872;12.972;2022-09-09T08:53:43;16.90;99.90
21627;DHT22;10975;47.872;12.972;2022-09-09T08:56:12;16.90;99.90
21627;DHT22;10975;47.872;12.972;2022-09-09T08:58:47;16.90;99.90
21627;DHT22;10975;47.872;12.972;2022-09-09T09:09:22;16.90;99.90
21627;DHT22;10975;47.872;12.972;2022-09-09T09:14:21;16.90;99.90
21627;DHT22;10975;47.872;12.972;2022-09-09T09:16:58;16.90;99.90
21627;DHT22;10975;47.872;12.972;2022-09-09T09:19:26;16.90;99.90
21627;DHT22;10975;47.872;12.972;2022-09-09T09:22:10;16.90;99.90
21627;DHT22;10975;47.872;12.972;2022-09-09T09:24:44;17.00;99.90
21627;DHT22;10975;47.872;12.972;2022-09-09T09:27:16;17.10;99.90
21627;DHT22;10975;47.872;12.972;2022-09-09T09:29:44;17.20;99.90
21627;DHT22;10975;47.872;12.972;2022-09-09T09:32:33;17.20;99.90
21627;DHT22;10975;47.872;12.972;2022-09-09T09:35:01;17.30;99.90
21627;DHT22;10975;47.872;12.972;2022-09-09T09:37:31;17.40;99.90
21627;DHT22;10975;47.872;12.972;2022-09-09T09:40:08;17.40;99.90
21627;DHT22;10975;47.872;12.972;2022-09-09T09:42:35;17.40;99.90
21627;DHT22;10975;47.872;12.972;2022-09-09T09:45:14;17.40;99.90
21627;DHT22;10975;47.872;12.972;2022-09-09T09:47:44;17.50;99.90
21627;DHT22;10975;47.872;12.972;2022-09-09T09:50:17;17.50;99.90
21627;DHT22;10975;47.872;12.972;2022-09-09T09:52:53;17.50;99.90
21627;DHT22;10975;47.872;12.972;2022-09-09T09:55:20;17.60;99.90
21627;DHT22;10975;47.872;12.972;2022-09-09T09:57:47;17.60;99.90
21627;DHT22;10975;47.872;12.972;2022-09-09T10:00:18;17.50;99.90
21627;DHT22;10975;47.872;12.972;2022-09-09T10:02:45;17.50;99.90
21627;DHT22;10975;47.872;12.972;2022-09-09T10:05:17;17.40;99.90
21627;DHT22;10975;47.872;12.972;2022-09-09T10:08:25;17.40;99.90
21627;DHT22;10975;47.872;12.972;2022-09-09T10:13:39;17.30;99.90
21627;DHT22;10975;47.872;12.972;2022-09-09T10:19:04;17.40;99.90
21627;DHT22;10975;47.872;12.972;2022-09-09T10:36:56;17.80;99.90
21627;DHT22;10975;47.872;12.972;2022-09-09T10:41:54;17.90;99.90
21627;DHT22;10975;47.872;12.972;2022-09-09T10:44:36;18.00;99.90
21627;DHT22;10975;47.872;12.972;2022-09-09T10:54:56;18.20;99.90
21627;DHT22;10975;47.872;12.972;2022-09-09T10:57:33;18.10;99.90
21627;DHT22;10975;47.872;12.972;2022-09-09T11:00:04;18.10;99.90
21627;DHT22;10975;47.872;12.972;2022-09-09T11:02:33;18.10;99.90
21627;DHT22;10975;47.872;12.972;2022-09-09T11:05:04;18.10;99.90
21627;DHT22;10975;47.872;12.972;2022-09-09T11:07:47;18.10;99.90
21627;DHT22;10975;47.872;12.972;2022-09-09T11:10:17;18.00;99.90
21627;DHT22;10975;47.872;12.972;2022-09-09T11:12:45;18.00;99.90
21627;DHT22;10975;47.872;12.972;2022-09-09T11:15:15;18.00;99.90
21627;DHT22;10975;47.872;12.972;2022-09-09T11:17:50;18.00;99.90
21627;DHT22;10975;47.872;12.972;2022-09-09T11:20:18;18.00;99.90
21627;DHT22;10975;47.872;12.972;2022-09-09T11:22:50;18.00;99.90
21627;DHT22;10975;47.872;12.972;2022-09-09T11:30:21;18.10;99.90
21627;DHT22;10975;47.872;12.972;2022-09-09T11:33:13;18.10;99.90
21627;DHT22;10975;47.872;12.972;2022-09-09T11:35:58;18.00;99.90
21627;DHT22;10975;47.872;12.972;2022-09-09T11:41:02;18.10;99.90
21627;DHT22;10975;47.872;12.972;2022-09-09T11:43:31;18.20;99.90
21627;DHT22;10975;47.872;12.972;2022-09-09T11:45:59;18.30;99.90
21627;DHT22;10975;47.872;12.972;2022-09-09T11:48:34;18.30;99.90
21627;DHT22;10975;47.872;12.972;2022-09-09T11:51:05;18.40;99.90
21627;DHT22;10975;47.872;12.972;2022-09-09T11:53:47;18.30;99.90
21627;DHT22;10975;47.872;12.972;2022-09-09T11:56:23;18.40;99.90
21627;DHT22;10975;47.872;12.972;2022-09-09T11:58:54;18.50;99.90
21627;DHT22;10975;47.872;12.972;2022-09-09T12:01:41;18.60;99.90
21627;DHT22;10975;47.872;12.972;2022-09-09T12:06:46;18.70;99.90
21627;DHT22;10975;47.872;12.972;2022-09-09T12:09:23;18.60;99.90
21627;DHT22;10975;47.872;12.972;2022-09-09T12:11:51;18.70;99.90
21627;DHT22;10975;47.872;12.972;2022-09-09T12:14:22;18.80;99.90
21627;DHT22;10975;47.872;12.972;2022-09-09T12:16:49;18.80;99.90
21627;DHT22;10975;47.872;12.972;2022-09-09T12:19:19;18.80;99.90
21627;DHT22;10975;47.872;12.972;2022-09-09T12:22:04;18.70;99.90
21627;DHT22;10975;47.872;12.972;2022-09-09T12:24:37;18.60;99.90
21627;DHT22;10975;47.872;12.972;2022-09-09T12:27:28;18.70;99.90
21627;DHT22;10975;47.872;12.972;2022-09-09T12:32:25;18.60;99.90
21627;DHT22;10975;47.872;12.972;2022-09-09T12:34:54;18.60;99.90
21627;DHT22;10975;47.872;12.972;2022-09-09T12:37:34;18.70;99.90
21627;DHT22;10975;47.872;12.972;2022-09-09T12:40:18;18.70;99.90
21627;DHT22;10975;47.872;12.972;2022-09-09T12:42:45;18.60;99.90
21627;DHT22;10975;47.872;12.972;2022-09-09T12:45:19;18.60;99.90
21627;DHT22;10975;47.872;12.972;2022-09-09T12:47:48;18.60;99.90
21627;DHT22;10975;47.872;12.972;2022-09-09T12:50:17;18.50;99.90
21627;DHT22;10975;47.872;12.972;2022-09-09T12:52:45;18.50;99.90
21627;DHT22;10975;47.872;12.972;2022-09-09T12:55:20;18.50;99.90
21627;DHT22;10975;47.872;12.972;2022-09-09T12:57:48;18.50;99.90
21627;DHT22;10975;47.872;12.972;2022-09-09T13:00:19;18.50;99.90
21627;DHT22;10975;47.872;12.972;2022-09-09T13:02:48;18.50;99.90
21627;DHT22;10975;47.872;12.972;2022-09-09T13:05:18;18.40;99.90
21627;DHT22;10975;47.872;12.972;2022-09-09T13:07:45;18.30;99.90
21627;DHT22;10975;47.872;12.972;2022-09-09T13:10:12;18.20;99.90
21627;DHT22;10975;47.872;12.972;2022-09-09T13:12:50;18.20;99.90
21627;DHT22;10975;47.872;12.972;2022-09-09T13:15:27;18.10;99.90
21627;DHT22;10975;47.872;12.972;2022-09-09T13:17:58;18.10;99.90
21627;DHT22;10975;47.872;12.972;2022-09-09T13:20:27;18.00;99.90
21627;DHT22;10975;47.872;12.972;2022-09-09T13:22:54;18.00;99.90
21627;DHT22;10975;47.872;12.972;2022-09-09T13:25:28;17.90;99.90
21627;DHT22;10975;47.872;12.972;2022-09-09T13:27:56;17.80;99.90
21627;DHT22;10975;47.872;12.972;2022-09-09T13:30:24;17.80;99.90
21627;DHT22;10975;47.872;12.972;2022-09-09T13:35:47;17.70;99.90
21627;DHT22;10975;47.872;12.972;2022-09-09T13:38:15;17.60;99.90
21627;DHT22;10975;47.872;12.972;2022-09-09T13:43:24;17.50;99.90
21627;DHT22;10975;47.872;12.972;2022-09-09T13:45:52;17.50;99.90
21627;DHT22;10975;47.872;12.972;2022-09-09T13:48:20;17.50;99.90
21627;DHT22;10975;47.872;12.972;2022-09-09T13:50:54;17.40;99.90
21627;DHT22;10975;47.872;12.972;2022-09-09T13:53:20;17.50;99.90
21627;DHT22;10975;47.872;12.972;2022-09-09T13:55:47;17.40;99.90
21627;DHT22;10975;47.872;12.972;2022-09-09T13:58:18;17.40;99.90
21627;DHT22;10975;47.872;12.972;2022-09-09T14:00:45;17.40;99.90
21627;DHT22;10975;47.872;12.972;2022-09-09T14:03:12;17.50;99.90
21627;DHT22;10975;47.872;12.972;2022-09-09T14:05:40;17.40;99.90
21627;DHT22;10975;47.872;12.972;2022-09-09T14:08:07;17.40;99.90
21627;DHT22;10975;47.872;12.972;2022-09-09T14:10:34;17.50;99.90
21627;DHT22;10975;47.872;12.972;2022-09-09T14:13:03;17.50;99.90
21627;DHT22;10975;47.872;12.972;2022-09-09T14:15:30;17.50;99.90
21627;DHT22;10975;47.872;12.972;2022-09-09T14:17:57;17.50;99.90
21627;DHT22;10975;47.872;12.972;2022-09-09T14:20:25;17.50;99.90
21627;DHT22;10975;47.872;12.972;2022-09-09T14:22:51;17.60;99.90
21627;DHT22;10975;47.872;12.972;2022-09-09T14:25:19;17.50;99.90
21627;DHT22;10975;47.872;12.972;2022-09-09T14:27:46;17.50;99.90
21627;DHT22;10975;47.872;12.972;2022-09-09T14:30:13;17.40;99.90
21627;DHT22;10975;47.872;12.972;2022-09-09T14:32:39;17.50;99.90
21627;DHT22;10975;47.872;12.972;2022-09-09T14:35:06;17.40;99.90
21627;DHT22;10975;47.872;12.972;2022-09-09T14:37:33;17.40;99.90
21627;DHT22;10975;47.872;12.972;2022-09-09T14:40:00;17.50;99.90
21627;DHT22;10975;47.872;12.972;2022-09-09T14:42:27;17.50;99.90
21627;DHT22;10975;47.872;12.972;2022-09-09T14:44:55;17.60;99.90
21627;DHT22;10975;47.872;12.972;2022-09-09T14:47:22;17.70;99.90
21627;DHT22;10975;47.872;12.972;2022-09-09T14:49:49;17.70;99.90
21627;DHT22;10975;47.872;12.972;2022-09-09T14:52:16;17.70;99.90
21627;DHT22;10975;47.872;12.972;2022-09-09T14:54:43;17.80;99.90
21627;DHT22;10975;47.872;12.972;2022-09-09T14:57:09;17.90;99.90
21627;DHT22;10975;47.872;12.972;2022-09-09T14:59:36;17.90;99.90
21627;DHT22;10975;47.872;12.972;2022-09-09T15:02:03;18.10;99.90
21627;DHT22;10975;47.872;12.972;2022-09-09T15:04:30;18.10;99.90
21627;DHT22;10975;47.872;12.972;2022-09-09T15:06:57;18.40;99.90
21627;DHT22;10975;47.872;12.972;2022-09-09T15:09:24;18.60;99.90
21627;DHT22;10975;47.872;12.972;2022-09-09T15:11:51;18.80;99.90
21627;DHT22;10975;47.872;12.972;2022-09-09T15:14:18;18.90;99.90
21627;DHT22;10975;47.872;12.972;2022-09-09T15:16:50;19.00;99.90
21627;DHT22;10975;47.872;12.972;2022-09-09T15:19:17;19.00;99.90
21627;DHT22;10975;47.872;12.972;2022-09-09T15:21:43;18.90;99.90
21627;DHT22;10975;47.872;12.972;2022-09-09T15:24:10;18.60;99.90
21627;DHT22;10975;47.872;12.972;2022-09-09T15:26:37;18.40;99.90
21627;DHT22;10975;47.872;12.972;2022-09-09T15:29:05;18.30;99.90
21627;DHT22;10975;47.872;12.972;2022-09-09T15:31:32;18.20;99.90
21627;DHT22;10975;47.872;12.972;2022-09-09T15:33:59;18.10;99.90
21627;DHT22;10975;47.872;12.972;2022-09-09T15:38:59;18.00;99.90
21627;DHT22;10975;47.872;12.972;2022-09-09T15:41:26;18.00;99.90
21627;DHT22;10975;47.872;12.972;2022-09-09T15:43:55;17.80;99.90
21627;DHT22;10975;47.872;12.972;2022-09-09T15:46:32;17.80;99.90
21627;DHT22;10975;47.872;12.972;2022-09-09T15:49:07;17.80;99.90
21627;DHT22;10975;47.872;12.972;2022-09-09T15:51:36;17.80;99.90
21627;DHT22;10975;47.872;12.972;2022-09-09T15:54:10;17.80;99.90
21627;DHT22;10975;47.872;12.972;2022-09-09T15:56:38;17.90;99.90
21627;DHT22;10975;47.872;12.972;2022-09-09T15:59:05;17.90;99.90
21627;DHT22;10975;47.872;12.972;2022-09-09T16:01:32;17.90;99.90
21627;DHT22;10975;47.872;12.972;2022-09-09T16:03:59;17.80;99.90
21627;DHT22;10975;47.872;12.972;2022-09-09T16:06:27;17.80;99.90
21627;DHT22;10975;47.872;12.972;2022-09-09T16:08:55;17.70;99.90
21627;DHT22;10975;47.872;12.972;2022-09-09T16:11:26;17.70;99.90
21627;DHT22;10975;47.872;12.972;2022-09-09T16:13:53;17.60;99.90
21627;DHT22;10975;47.872;12.972;2022-09-09T16:16:22;17.50;99.90
21627;DHT22;10975;47.872;12.972;2022-09-09T16:18:49;17.50;99.90
21627;DHT22;10975;47.872;12.972;2022-09-09T16:21:19;17.50;99.90
21627;DHT22;10975;47.872;12.972;2022-09-09T16:23:47;17.40;99.90
21627;DHT22;10975;47.872;12.972;2022-09-09T16:26:16;17.40;99.90
21627;DHT22;10975;47.872;12.972;2022-09-09T16:28:43;17.40;99.90
21627;DHT22;10975;47.872;12.972;2022-09-09T16:31:13;17.40;99.90
21627;DHT22;10975;47.872;12.972;2022-09-09T16:33:40;17.50;99.90
21627;DHT22;10975;47.872;12.972;2022-09-09T16:36:08;17.50;99.90
21627;DHT22;10975;47.872;12.972;2022-09-09T16:38:36;17.50;99.90
21627;DHT22;10975;47.872;12.972;2022-09-09T16:41:04;17.50;99.90
21627;DHT22;10975;47.872;12.972;2022-09-09T16:43:34;17.40;99.90
21627;DHT22;10975;47.872;12.972;2022-09-09T16:46:03;17.40;99.90
21627;DHT22;10975;47.872;12.972;2022-09-09T16:48:31;17.40;99.90
21627;DHT22;10975;47.872;12.972;2022-09-09T16:51:04;17.20;99.90
21627;DHT22;10975;47.872;12.972;2022-09-09T16:53:31;17.10;99.90
21627;DHT22;10975;47.872;12.972;2022-09-09T16:55:58;17.00;99.90
21627;DHT22;10975;47.872;12.972;2022-09-09T16:58:25;16.90;99.90
21627;DHT22;10975;47.872;12.972;2022-09-09T17:00:57;16.80;99.90
21627;DHT22;10975;47.872;12.972;2022-09-09T17:03:23;16.70;99.90
21627;DHT22;10975;47.872;12.972;2022-09-09T17:05:50;16.60;99.90
21627;DHT22;10975;47.872;12.972;2022-09-09T17:08:17;16.50;99.90
21627;DHT22;10975;47.872;12.972;2022-09-09T17:10:43;16.50;99.90
21627;DHT22;10975;47.872;12.972;2022-09-09T17:13:10;16.50;99.90
21627;DHT22;10975;47.872;12.972;2022-09-09T17:15:41;16.40;99.90